sensor_id;sensor_type;location;lat;lon;timestamp;pressure;altitude;pressure_sealevel;temperature;humidity
11198;BME280;5655;48.744;9.162;2023-07-13T00:01:13;96167.63;;;21.59;100.00
11198;BME280;5655;48.744;9.162;2023-07-13T00:03:38;96164.41;;;21.39;100.00
11198;BME280;5655;48.744;9.162;2023-07-13T00:06:06;96164.63;;;21.44;100.00
11198;BME280;5655;48.744;9.162;2023-07-13T00:08:32;96156.16;;;21.17;100.00
11198;BME280;5655;48.744;9.162;2023-07-13T00:11:01;96160.94;;;21.25;100.00
11198;BME280;5655;48.744;9.162;2023-07-13T00:13:28;96158.41;;;21.18;100.00
11198;BME280;5655;48.744;9.162;2023-07-13T00:15:53;96167.34;;;21.19;100.00
11198;BME280;5655;48.744;9.162;2023-07-13T00:18:19;96157.22;;;21.19;100.00
11198;BME280;5655;48.744;9.162;2023-07-13T00:20:45;96155.50;;;21.13;100.00
11198;BME280;5655;48.744;9.162;2023-07-13T00:23:10;96170.06;;;21.06;100.00
11198;BME280;5655;48.744;9.162;2023-07-13T00:25:35;96156.91;;;21.05;100.00
11198;BME280;5655;48.744;9.162;2023-07-13T00:28:02;96160.03;;;20.78;100.00
11198;BME280;5655;48.744;9.162;2023-07-13T00:30:27;96165.34;;;20.69;100.00
11198;BME280;5655;48.744;9.162;2023-07-13T00:32:52;96153.94;;;20.99;100.00
11198;BME280;5655;48.744;9.162;2023-07-13T00:35:18;96160.81;;;20.91;100.00
11198;BME280;5655;48.744;9.162;2023-07-13T00:37:44;96159.41;;;20.99;100.00
11198;BME280;5655;48.744;9.162;2023-07-13T00:40:11;96172.66;;;20.97;100.00
11198;BME280;5655;48.744;9.162;2023-07-13T00:42:37;96168.97;;;20.91;100.00
11198;BME280;5655;48.744;9.162;2023-07-13T00:47:40;96180.06;;;20.84;100.00
11198;BME280;5655;48.744;9.162;2023-07-13T00:50:12;96171.69;;;20.91;100.00
11198;BME280;5655;48.744;9.162;2023-07-13T00:52:41;96176.00;;;20.76;100.00
11198;BME280;5655;48.744;9.162;2023-07-13T00:55:08;96178.28;;;20.52;100.00
11198;BME280;5655;48.744;9.162;2023-07-13T00:57:34;96186.78;;;20.67;100.00
11198;BME280;5655;48.744;9.162;2023-07-13T01:00:03;96178.75;;;21.01;100.00
11198;BME280;5655;48.744;9.162;2023-07-13T01:02:40;96180.41;;;20.99;100.00
11198;BME280;5655;48.744;9.162;2023-07-13T01:05:12;96187.25;;;20.78;100.00
11198;BME280;5655;48.744;9.162;2023-07-13T01:07:39;96192.13;;;20.70;100.00
11198;BME280;5655;48.744;9.162;2023-07-13T01:10:07;96191.91;;;20.77;100.00
11198;BME280;5655;48.744;9.162;2023-07-13T01:12:32;96187.38;;;20.87;100.00
11198;BME280;5655;48.744;9.162;2023-07-13T01:15:00;96190.75;;;20.91;100.00
11198;BME280;5655;48.744;9.162;2023-07-13T01:17:26;96192.03;;;20.74;100.00
11198;BME280;5655;48.744;9.162;2023-07-13T01:19:52;96186.06;;;20.79;100.00
11198;BME280;5655;48.744;9.162;2023-07-13T01:22:18;96183.00;;;20.77;100.00
11198;BME280;5655;48.744;9.162;2023-07-13T01:24:46;96181.38;;;20.92;100.00
11198;BME280;5655;48.744;9.162;2023-07-13T01:27:15;96186.50;;;20.90;100.00
11198;BME280;5655;48.744;9.162;2023-07-13T01:29:43;96196.38;;;20.84;100.00
11198;BME280;5655;48.744;9.162;2023-07-13T01:32:11;96188.00;;;20.78;100.00
11198;BME280;5655;48.744;9.162;2023-07-13T01:34:37;96193.75;;;20.68;100.00
11198;BME280;5655;48.744;9.162;2023-07-13T01:37:04;96189.63;;;20.76;100.00
11198;BME280;5655;48.744;9.162;2023-07-13T01:39:30;96181.34;;;20.67;100.00
11198;BME280;5655;48.744;9.162;2023-07-13T01:41:56;96195.28;;;20.69;100.00
11198;BME280;5655;48.744;9.162;2023-07-13T01:44:22;96190.38;;;20.64;100.00
11198;BME280;5655;48.744;9.162;2023-07-13T01:46:47;96187.19;;;20.53;100.00
11198;BME280;5655;48.744;9.162;2023-07-13T01:49:12;96184.66;;;20.46;100.00
11198;BME280;5655;48.744;9.162;2023-07-13T01:51:38;96180.63;;;20.37;100.00
11198;BME280;5655;48.744;9.162;2023-07-13T01:54:03;96182.38;;;20.44;100.00
11198;BME280;5655;48.744;9.162;2023-07-13T01:56:28;96193.28;;;20.57;100.00
11198;BME280;5655;48.744;9.162;2023-07-13T01:58:54;96185.00;;;20.48;100.00
11198;BME280;5655;48.744;9.162;2023-07-13T02:01:19;96188.47;;;20.35;100.00
11198;BME280;5655;48.744;9.162;2023-07-13T02:03:44;96190.00;;;20.20;100.00
11198;BME280;5655;48.744;9.162;2023-07-13T02:06:09;96195.78;;;20.22;100.00
11198;BME280;5655;48.744;9.162;2023-07-13T02:08:35;96188.59;;;20.28;100.00
11198;BME280;5655;48.744;9.162;2023-07-13T02:11:02;96199.16;;;20.26;100.00
11198;BME280;5655;48.744;9.162;2023-07-13T02:13:27;96202.06;;;20.19;100.00
11198;BME280;5655;48.744;9.162;2023-07-13T02:15:53;96203.28;;;20.02;100.00
11198;BME280;5655;48.744;9.162;2023-07-13T02:18:18;96197.56;;;19.84;100.00
11198;BME280;5655;48.744;9.162;2023-07-13T02:20:44;96195.34;;;19.79;100.00
11198;BME280;5655;48.744;9.162;2023-07-13T02:23:09;96203.31;;;19.86;100.00
11198;BME280;5655;48.744;9.162;2023-07-13T02:25:35;96195.34;;;19.79;100.00
11198;BME280;5655;48.744;9.162;2023-07-13T02:28:00;96201.38;;;19.86;100.00
11198;BME280;5655;48.744;9.162;2023-07-13T02:30:27;96195.34;;;19.79;100.00
11198;BME280;5655;48.744;9.162;2023-07-13T02:32:57;96193.81;;;19.78;100.00
11198;BME280;5655;48.744;9.162;2023-07-13T02:35:23;96200.28;;;19.68;100.00
11198;BME280;5655;48.744;9.162;2023-07-13T02:37:48;96199.59;;;19.64;100.00
11198;BME280;5655;48.744;9.162;2023-07-13T02:40:13;96205.88;;;19.61;100.00
11198;BME280;5655;48.744;9.162;2023-07-13T02:42:39;96211.50;;;19.54;100.00
11198;BME280;5655;48.744;9.162;2023-07-13T02:45:06;96207.56;;;19.55;100.00
11198;BME280;5655;48.744;9.162;2023-07-13T02:47:33;96209.69;;;19.47;100.00
11198;BME280;5655;48.744;9.162;2023-07-13T02:49:58;96200.88;;;19.43;100.00
11198;BME280;5655;48.744;9.162;2023-07-13T02:52:24;96203.94;;;19.45;100.00
11198;BME280;5655;48.744;9.162;2023-07-13T02:54:49;96199.75;;;19.40;100.00
11198;BME280;5655;48.744;9.162;2023-07-13T02:57:15;96211.13;;;19.35;100.00
11198;BME280;5655;48.744;9.162;2023-07-13T02:59:40;96206.38;;;19.39;100.00
11198;BME280;5655;48.744;9.162;2023-07-13T03:02:05;96207.91;;;19.40;100.00
11198;BME280;5655;48.744;9.162;2023-07-13T03:04:32;96210.09;;;19.29;100.00
11198;BME280;5655;48.744;9.162;2023-07-13T03:06:57;96211.88;;;19.36;100.00
11198;BME280;5655;48.744;9.162;2023-07-13T03:09:24;96216.03;;;19.40;100.00
11198;BME280;5655;48.744;9.162;2023-07-13T03:11:52;96212.97;;;19.38;100.00
11198;BME280;5655;48.744;9.162;2023-07-13T03:14:17;96214.88;;;19.41;100.00
11198;BME280;5655;48.744;9.162;2023-07-13T03:16:43;96209.25;;;19.81;100.00
11198;BME280;5655;48.744;9.162;2023-07-13T03:19:08;96222.44;;;19.82;100.00
11198;BME280;5655;48.744;9.162;2023-07-13T03:21:34;96220.78;;;19.85;100.00
11198;BME280;5655;48.744;9.162;2023-07-13T03:23:59;96223.28;;;20.24;100.00
11198;BME280;5655;48.744;9.162;2023-07-13T03:26:24;96226.19;;;20.17;100.00
11198;BME280;5655;48.744;9.162;2023-07-13T03:28:50;96226.31;;;20.43;100.00
11198;BME280;5655;48.744;9.162;2023-07-13T03:31:18;96235.88;;;20.76;100.00
11198;BME280;5655;48.744;9.162;2023-07-13T03:33:45;96234.38;;;20.75;100.00
11198;BME280;5655;48.744;9.162;2023-07-13T03:36:15;96244.44;;;20.62;100.00
11198;BME280;5655;48.744;9.162;2023-07-13T03:38:42;96241.91;;;20.55;100.00
11198;BME280;5655;48.744;9.162;2023-07-13T03:41:07;96243.38;;;20.72;100.00
11198;BME280;5655;48.744;9.162;2023-07-13T03:43:33;96244.28;;;20.94;100.00
11198;BME280;5655;48.744;9.162;2023-07-13T03:45:58;96248.19;;;20.93;100.00
11198;BME280;5655;48.744;9.162;2023-07-13T03:48:23;96250.78;;;20.84;100.00
11198;BME280;5655;48.744;9.162;2023-07-13T03:50:49;96254.50;;;20.77;100.00
11198;BME280;5655;48.744;9.162;2023-07-13T03:53:14;96240.78;;;20.40;100.00
11198;BME280;5655;48.744;9.162;2023-07-13T03:55:40;96251.19;;;20.57;100.00
11198;BME280;5655;48.744;9.162;2023-07-13T03:58:27;96263.56;;;20.58;100.00
11198;BME280;5655;48.744;9.162;2023-07-13T04:00:53;96255.88;;;20.24;100.00
11198;BME280;5655;48.744;9.162;2023-07-13T04:03:19;96257.09;;;20.23;100.00
11198;BME280;5655;48.744;9.162;2023-07-13T04:05:44;96253.81;;;20.32;100.00
11198;BME280;5655;48.744;9.162;2023-07-13T04:08:10;96259.25;;;20.32;100.00
11198;BME280;5655;48.744;9.162;2023-07-13T04:10:35;96253.69;;;20.35;100.00
11198;BME280;5655;48.744;9.162;2023-07-13T04:13:01;96260.84;;;20.29;100.00
11198;BME280;5655;48.744;9.162;2023-07-13T04:15:30;96260.75;;;20.33;100.00
11198;BME280;5655;48.744;9.162;2023-07-13T04:17:55;96259.97;;;20.32;100.00
11198;BME280;5655;48.744;9.162;2023-07-13T04:20:21;96263.28;;;20.24;100.00
11198;BME280;5655;48.744;9.162;2023-07-13T04:22:47;96259.25;;;20.32;100.00
11198;BME280;5655;48.744;9.162;2023-07-13T04:25:12;96269.25;;;20.35;100.00
11198;BME280;5655;48.744;9.162;2023-07-13T04:27:37;96273.41;;;20.23;100.00
11198;BME280;5655;48.744;9.162;2023-07-13T04:30:05;96269.34;;;20.31;100.00
11198;BME280;5655;48.744;9.162;2023-07-13T04:32:31;96267.38;;;20.16;100.00
11198;BME280;5655;48.744;9.162;2023-07-13T04:34:57;96270.69;;;20.07;100.00
11198;BME280;5655;48.744;9.162;2023-07-13T04:37:27;96263.81;;;20.03;100.00
11198;BME280;5655;48.744;9.162;2023-07-13T04:39:52;96270.16;;;20.28;100.00
11198;BME280;5655;48.744;9.162;2023-07-13T04:42:18;96274.25;;;20.20;100.00
11198;BME280;5655;48.744;9.162;2023-07-13T04:44:51;96279.53;;;20.27;100.00
11198;BME280;5655;48.744;9.162;2023-07-13T04:47:17;96278.31;;;20.28;100.00
11198;BME280;5655;48.744;9.162;2023-07-13T04:49:43;96278.44;;;20.09;100.00
11198;BME280;5655;48.744;9.162;2023-07-13T04:52:08;96268.13;;;20.16;100.00
11198;BME280;5655;48.744;9.162;2023-07-13T04:54:34;96275.38;;;20.07;100.00
11198;BME280;5655;48.744;9.162;2023-07-13T04:57:00;96273.84;;;20.06;100.00
11198;BME280;5655;48.744;9.162;2023-07-13T04:59:25;96282.84;;;20.03;100.00
11198;BME280;5655;48.744;9.162;2023-07-13T05:01:50;96276.31;;;20.00;100.00
11198;BME280;5655;48.744;9.162;2023-07-13T05:04:16;96282.84;;;20.03;100.00
11198;BME280;5655;48.744;9.162;2023-07-13T05:06:41;96279.53;;;20.11;100.00
11198;BME280;5655;48.744;9.162;2023-07-13T05:09:06;96281.31;;;20.18;100.00
11198;BME280;5655;48.744;9.162;2023-07-13T05:11:32;96279.97;;;20.10;100.00
11198;BME280;5655;48.744;9.162;2023-07-13T05:13:58;96280.91;;;20.03;100.00
11198;BME280;5655;48.744;9.162;2023-07-13T05:16:23;96285.50;;;20.06;100.00
11198;BME280;5655;48.744;9.162;2023-07-13T05:18:49;96281.75;;;20.00;100.00
11198;BME280;5655;48.744;9.162;2023-07-13T05:21:14;96285.50;;;20.06;100.00
11198;BME280;5655;48.744;9.162;2023-07-13T05:23:40;96288.09;;;20.26;100.00
11198;BME280;5655;48.744;9.162;2023-07-13T05:26:07;96279.25;;;20.22;100.00
11198;BME280;5655;48.744;9.162;2023-07-13T05:28:32;96284.97;;;20.27;100.00
11198;BME280;5655;48.744;9.162;2023-07-13T05:30:58;96288.84;;;20.26;100.00
11198;BME280;5655;48.744;9.162;2023-07-13T05:33:24;96287.94;;;20.33;100.00
11198;BME280;5655;48.744;9.162;2023-07-13T05:35:50;96300.09;;;20.12;100.00
11198;BME280;5655;48.744;9.162;2023-07-13T05:38:15;96297.72;;;20.14;100.00
11198;BME280;5655;48.744;9.162;2023-07-13T05:40:45;96300.75;;;20.16;100.00
11198;BME280;5655;48.744;9.162;2023-07-13T05:43:11;96299.41;;;20.08;100.00
11198;BME280;5655;48.744;9.162;2023-07-13T05:45:37;96303.50;;;20.00;100.00
11198;BME280;5655;48.744;9.162;2023-07-13T05:48:02;96298.25;;;19.93;100.00
11198;BME280;5655;48.744;9.162;2023-07-13T05:50:27;96295.50;;;20.09;100.00
11198;BME280;5655;48.744;9.162;2023-07-13T05:52:53;96296.19;;;20.13;100.00
11198;BME280;5655;48.744;9.162;2023-07-13T05:55:19;96297.38;;;20.12;100.00
11198;BME280;5655;48.744;9.162;2023-07-13T05:57:44;96301.09;;;20.18;100.00
11198;BME280;5655;48.744;9.162;2023-07-13T06:00:10;96302.88;;;20.25;100.00
11198;BME280;5655;48.744;9.162;2023-07-13T06:02:36;96309.06;;;20.25;100.00
11198;BME280;5655;48.744;9.162;2023-07-13T06:05:01;96303.97;;;20.11;100.00
11198;BME280;5655;48.744;9.162;2023-07-13T06:07:26;96319.47;;;20.14;100.00
11198;BME280;5655;48.744;9.162;2023-07-13T06:09:52;96315.72;;;20.08;100.00
11198;BME280;5655;48.744;9.162;2023-07-13T06:12:17;96321.63;;;20.19;100.00
11198;BME280;5655;48.744;9.162;2023-07-13T06:14:42;96317.50;;;20.31;100.00
11198;BME280;5655;48.744;9.162;2023-07-13T06:17:08;96324.91;;;20.30;100.00
11198;BME280;5655;48.744;9.162;2023-07-13T06:19:34;96320.13;;;20.34;100.00
11198;BME280;5655;48.744;9.162;2023-07-13T06:22:00;96322.66;;;20.42;100.00
11198;BME280;5655;48.744;9.162;2023-07-13T06:24:26;96330.50;;;20.68;100.00
11198;BME280;5655;48.744;9.162;2023-07-13T06:26:51;96333.84;;;20.60;100.00
11198;BME280;5655;48.744;9.162;2023-07-13T06:29:16;96339.78;;;21.00;100.00
11198;BME280;5655;48.744;9.162;2023-07-13T06:31:42;96343.88;;;20.63;100.00
11198;BME280;5655;48.744;9.162;2023-07-13T06:34:07;96344.66;;;20.47;100.00
11198;BME280;5655;48.744;9.162;2023-07-13T06:36:33;96343.66;;;20.86;100.00
11198;BME280;5655;48.744;9.162;2023-07-13T06:38:58;96350.03;;;21.08;100.00
11198;BME280;5655;48.744;9.162;2023-07-13T06:41:24;96351.31;;;21.04;100.00
11198;BME280;5655;48.744;9.162;2023-07-13T06:43:51;96352.75;;;21.08;100.00
11198;BME280;5655;48.744;9.162;2023-07-13T06:46:17;96352.72;;;21.37;100.00
11198;BME280;5655;48.744;9.162;2023-07-13T06:48:43;96349.13;;;21.27;100.00
11198;BME280;5655;48.744;9.162;2023-07-13T06:51:08;96357.22;;;21.44;100.00
11198;BME280;5655;48.744;9.162;2023-07-13T06:53:34;96354.41;;;21.85;100.00
11198;BME280;5655;48.744;9.162;2023-07-13T06:55:59;96362.00;;;21.40;100.00
11198;BME280;5655;48.744;9.162;2023-07-13T06:58:24;96366.91;;;21.57;100.00
11198;BME280;5655;48.744;9.162;2023-07-13T07:00:51;96356.47;;;21.68;100.00
11198;BME280;5655;48.744;9.162;2023-07-13T07:03:17;96356.38;;;21.97;100.00
11198;BME280;5655;48.744;9.162;2023-07-13T07:05:42;96358.09;;;21.66;100.00
11198;BME280;5655;48.744;9.162;2023-07-13T07:08:07;96363.56;;;21.91;100.00
11198;BME280;5655;48.744;9.162;2023-07-13T07:10:34;96368.81;;;21.98;100.00
11198;BME280;5655;48.744;9.162;2023-07-13T07:12:59;96371.22;;;22.22;100.00
11198;BME280;5655;48.744;9.162;2023-07-13T07:15:26;96366.63;;;22.18;100.00
11198;BME280;5655;48.744;9.162;2023-07-13T07:17:52;96363.78;;;21.84;100.00
11198;BME280;5655;48.744;9.162;2023-07-13T07:20:17;96367.41;;;21.94;100.00
11198;BME280;5655;48.744;9.162;2023-07-13T07:22:42;96365.66;;;21.87;100.00
11198;BME280;5655;48.744;9.162;2023-07-13T07:25:08;96364.38;;;22.04;100.00
11198;BME280;5655;48.744;9.162;2023-07-13T07:27:33;96367.94;;;22.14;100.00
11198;BME280;5655;48.744;9.162;2023-07-13T07:29:59;96363.53;;;22.42;100.00
11198;BME280;5655;48.744;9.162;2023-07-13T07:32:25;96367.19;;;22.26;100.00
11198;BME280;5655;48.744;9.162;2023-07-13T07:34:50;96365.94;;;22.40;100.00
11198;BME280;5655;48.744;9.162;2023-07-13T07:37:16;96367.56;;;22.50;100.00
11198;BME280;5655;48.744;9.162;2023-07-13T07:39:43;96358.06;;;22.42;100.00
11198;BME280;5655;48.744;9.162;2023-07-13T07:42:09;96355.34;;;22.42;100.00
11198;BME280;5655;48.744;9.162;2023-07-13T07:44:34;96367.38;;;22.66;100.00
11198;BME280;5655;48.744;9.162;2023-07-13T07:47:00;96363.28;;;22.49;100.00
11198;BME280;5655;48.744;9.162;2023-07-13T07:49:26;96365.97;;;22.74;100.00
11198;BME280;5655;48.744;9.162;2023-07-13T07:51:51;96365.97;;;23.39;100.00
11198;BME280;5655;48.744;9.162;2023-07-13T07:54:17;96360.47;;;23.30;100.00
11198;BME280;5655;48.744;9.162;2023-07-13T07:56:43;96368.09;;;22.92;100.00
11198;BME280;5655;48.744;9.162;2023-07-13T07:59:09;96372.47;;;22.89;100.00
11198;BME280;5655;48.744;9.162;2023-07-13T08:01:34;96369.25;;;23.03;100.00
11198;BME280;5655;48.744;9.162;2023-07-13T08:03:59;96372.22;;;22.96;89.43
11198;BME280;5655;48.744;9.162;2023-07-13T08:06:25;96375.91;;;23.02;90.68
11198;BME280;5655;48.744;9.162;2023-07-13T08:08:50;96372.16;;;23.31;86.53
11198;BME280;5655;48.744;9.162;2023-07-13T08:11:16;96371.72;;;23.32;84.29
11198;BME280;5655;48.744;9.162;2023-07-13T08:13:42;96371.44;;;23.61;86.86
11198;BME280;5655;48.744;9.162;2023-07-13T08:16:08;96378.66;;;23.46;83.42
11198;BME280;5655;48.744;9.162;2023-07-13T08:18:33;96369.47;;;23.40;75.14
11198;BME280;5655;48.744;9.162;2023-07-13T08:21:04;96378.41;;;23.53;76.33
11198;BME280;5655;48.744;9.162;2023-07-13T08:23:29;96375.22;;;23.55;75.55
11198;BME280;5655;48.744;9.162;2023-07-13T08:25:55;96380.47;;;23.27;77.18
11198;BME280;5655;48.744;9.162;2023-07-13T08:28:21;96373.16;;;23.68;77.82
11198;BME280;5655;48.744;9.162;2023-07-13T08:30:47;96374.94;;;23.62;79.19
11198;BME280;5655;48.744;9.162;2023-07-13T08:33:15;96370.38;;;23.89;81.46
11198;BME280;5655;48.744;9.162;2023-07-13T08:35:41;96371.09;;;24.21;80.61
11198;BME280;5655;48.744;9.162;2023-07-13T08:38:06;96372.75;;;23.78;80.83
11198;BME280;5655;48.744;9.162;2023-07-13T08:40:33;96384.16;;;24.17;80.94
11198;BME280;5655;48.744;9.162;2023-07-13T08:43:00;96375.84;;;23.89;81.34
11198;BME280;5655;48.744;9.162;2023-07-13T08:45:43;96378.28;;;24.27;81.38
11198;BME280;5655;48.744;9.162;2023-07-13T08:48:13;96382.66;;;24.16;81.32
11198;BME280;5655;48.744;9.162;2023-07-13T08:53:40;96388.47;;;23.96;77.85
11198;BME280;5655;48.744;9.162;2023-07-13T08:56:22;96376.50;;;24.03;76.07
11198;BME280;5655;48.744;9.162;2023-07-13T08:58:54;96374.47;;;24.34;80.05
11198;BME280;5655;48.744;9.162;2023-07-13T09:01:29;96381.19;;;24.33;77.71
11198;BME280;5655;48.744;9.162;2023-07-13T09:04:06;96376.38;;;24.64;71.79
11198;BME280;5655;48.744;9.162;2023-07-13T09:06:59;96387.97;;;24.96;73.04
11198;BME280;5655;48.744;9.162;2023-07-13T09:12:41;96382.50;;;24.87;71.13
11198;BME280;5655;48.744;9.162;2023-07-13T09:15:40;96391.13;;;24.58;68.44
11198;BME280;5655;48.744;9.162;2023-07-13T09:18:27;96382.63;;;24.83;67.74
11198;BME280;5655;48.744;9.162;2023-07-13T09:20:57;96380.69;;;24.93;67.84
11198;BME280;5655;48.744;9.162;2023-07-13T09:23:26;96386.00;;;24.96;66.97
11198;BME280;5655;48.744;9.162;2023-07-13T09:26:01;96390.88;;;24.92;70.41
11198;BME280;5655;48.744;9.162;2023-07-13T09:28:29;96394.88;;;24.51;71.47
11198;BME280;5655;48.744;9.162;2023-07-13T09:31:23;96382.78;;;24.79;69.81
11198;BME280;5655;48.744;9.162;2023-07-13T09:33:49;96383.06;;;24.72;69.14
11198;BME280;5655;48.744;9.162;2023-07-13T09:38:44;96384.94;;;25.12;68.78
11198;BME280;5655;48.744;9.162;2023-07-13T09:41:21;96384.91;;;25.39;72.90
11198;BME280;5655;48.744;9.162;2023-07-13T09:46:27;96396.16;;;24.77;71.24
11198;BME280;5655;48.744;9.162;2023-07-13T09:48:52;96385.25;;;24.96;71.71
11198;BME280;5655;48.744;9.162;2023-07-13T09:51:18;96388.56;;;25.45;73.81
11198;BME280;5655;48.744;9.162;2023-07-13T09:53:44;96383.56;;;25.95;72.40
11198;BME280;5655;48.744;9.162;2023-07-13T09:56:29;96380.31;;;26.05;69.40
11198;BME280;5655;48.744;9.162;2023-07-13T09:58:56;96386.16;;;26.31;64.56
11198;BME280;5655;48.744;9.162;2023-07-13T10:01:36;96388.34;;;26.51;64.50
11198;BME280;5655;48.744;9.162;2023-07-13T10:04:10;96383.28;;;26.26;63.34
11198;BME280;5655;48.744;9.162;2023-07-13T10:06:38;96383.06;;;26.38;64.32
11198;BME280;5655;48.744;9.162;2023-07-13T10:09:07;96387.97;;;26.01;63.03
11198;BME280;5655;48.744;9.162;2023-07-13T10:11:34;96380.22;;;25.91;62.56
11198;BME280;5655;48.744;9.162;2023-07-13T10:14:02;96389.28;;;25.64;62.52
11198;BME280;5655;48.744;9.162;2023-07-13T10:16:34;96386.72;;;25.33;62.01
11198;BME280;5655;48.744;9.162;2023-07-13T10:19:26;96397.41;;;25.58;63.44
11198;BME280;5655;48.744;9.162;2023-07-13T10:22:42;96382.25;;;25.72;66.64
11198;BME280;5655;48.744;9.162;2023-07-13T10:24:41;96389.16;;;26.09;63.44
11198;BME280;5655;48.744;9.162;2023-07-13T10:27:15;96385.13;;;25.87;62.11
11198;BME280;5655;48.744;9.162;2023-07-13T10:29:55;96379.97;;;26.45;61.85
11198;BME280;5655;48.744;9.162;2023-07-13T10:32:24;96384.94;;;26.80;67.80
11198;BME280;5655;48.744;9.162;2023-07-13T10:34:50;96383.00;;;26.71;61.17
11198;BME280;5655;48.744;9.162;2023-07-13T10:37:26;96396.81;;;26.86;60.41
11198;BME280;5655;48.744;9.162;2023-07-13T10:39:54;96396.63;;;26.42;57.82
11198;BME280;5655;48.744;9.162;2023-07-13T10:42:30;96395.63;;;25.88;59.67
11198;BME280;5655;48.744;9.162;2023-07-13T10:44:57;96389.97;;;25.92;59.07
11198;BME280;5655;48.744;9.162;2023-07-13T10:47:23;96390.78;;;26.16;58.29
11198;BME280;5655;48.744;9.162;2023-07-13T10:49:52;96388.56;;;25.45;60.64
11198;BME280;5655;48.744;9.162;2023-07-13T10:52:41;96384.84;;;25.76;59.42
11198;BME280;5655;48.744;9.162;2023-07-13T10:55:37;96374.44;;;25.89;61.71
11198;BME280;5655;48.744;9.162;2023-07-13T10:58:34;96384.88;;;26.41;62.19
11198;BME280;5655;48.744;9.162;2023-07-13T11:03:47;96373.25;;;26.94;62.64
11198;BME280;5655;48.744;9.162;2023-07-13T11:06:34;96378.91;;;26.67;58.92
11198;BME280;5655;48.744;9.162;2023-07-13T11:09:33;96375.16;;;26.88;58.70
11198;BME280;5655;48.744;9.162;2023-07-13T11:12:01;96373.13;;;27.12;61.88
11198;BME280;5655;48.744;9.162;2023-07-13T11:16:53;96355.47;;;27.92;58.47
11198;BME280;5655;48.744;9.162;2023-07-13T11:24:33;96355.97;;;27.17;57.87
11198;BME280;5655;48.744;9.162;2023-07-13T11:27:30;96354.75;;;27.18;60.04
11198;BME280;5655;48.744;9.162;2023-07-13T11:35:35;96351.97;;;28.61;57.24
11198;BME280;5655;48.744;9.162;2023-07-13T11:38:02;96349.06;;;28.30;53.45
11198;BME280;5655;48.744;9.162;2023-07-13T11:40:29;96354.09;;;27.82;55.11
11198;BME280;5655;48.744;9.162;2023-07-13T11:43:02;96354.66;;;27.71;55.01
11198;BME280;5655;48.744;9.162;2023-07-13T11:45:32;96351.53;;;27.49;54.16
11198;BME280;5655;48.744;9.162;2023-07-13T11:47:57;96356.06;;;28.11;52.61
11198;BME280;5655;48.744;9.162;2023-07-13T11:50:25;96353.72;;;27.74;52.42
11198;BME280;5655;48.744;9.162;2023-07-13T11:52:52;96349.38;;;27.68;53.07
11198;BME280;5655;48.744;9.162;2023-07-13T11:55:21;96345.34;;;27.98;56.17
11198;BME280;5655;48.744;9.162;2023-07-13T11:57:57;96347.47;;;28.43;52.13
11198;BME280;5655;48.744;9.162;2023-07-13T12:00:28;96355.88;;;27.70;53.92
11198;BME280;5655;48.744;9.162;2023-07-13T12:02:56;96359.31;;;27.80;54.77
11198;BME280;5655;48.744;9.162;2023-07-13T12:05:22;96354.75;;;27.77;55.50
11198;BME280;5655;48.744;9.162;2023-07-13T12:07:49;96353.94;;;28.20;54.66
11198;BME280;5655;48.744;9.162;2023-07-13T12:13:00;96345.72;;;27.91;53.63
11198;BME280;5655;48.744;9.162;2023-07-13T12:15:43;96352.81;;;28.67;54.70
11198;BME280;5655;48.744;9.162;2023-07-13T12:18:13;96349.44;;;28.98;52.85
11198;BME280;5655;48.744;9.162;2023-07-13T12:20:39;96350.03;;;29.08;51.92
11198;BME280;5655;48.744;9.162;2023-07-13T12:23:06;96352.19;;;28.98;49.36
11198;BME280;5655;48.744;9.162;2023-07-13T12:25:35;96341.84;;;29.39;48.99
11198;BME280;5655;48.744;9.162;2023-07-13T12:28:28;96340.44;;;29.49;46.83
11198;BME280;5655;48.744;9.162;2023-07-13T12:31:01;96345.63;;;29.73;46.87
11198;BME280;5655;48.744;9.162;2023-07-13T12:33:30;96336.00;;;30.26;46.87
11198;BME280;5655;48.744;9.162;2023-07-13T12:35:59;96341.06;;;29.33;46.23
11198;BME280;5655;48.744;9.162;2023-07-13T12:38:25;96341.56;;;28.91;46.76
11198;BME280;5655;48.744;9.162;2023-07-13T12:40:51;96348.50;;;28.81;47.58
11198;BME280;5655;48.744;9.162;2023-07-13T12:43:19;96341.97;;;29.04;47.49
11198;BME280;5655;48.744;9.162;2023-07-13T12:48:24;96337.81;;;29.66;46.24
11198;BME280;5655;48.744;9.162;2023-07-13T12:50:53;96352.91;;;29.19;45.03
11198;BME280;5655;48.744;9.162;2023-07-13T12:53:21;96352.16;;;29.18;44.91
11198;BME280;5655;48.744;9.162;2023-07-13T12:55:49;96349.38;;;29.18;45.39
11198;BME280;5655;48.744;9.162;2023-07-13T13:01:03;96342.88;;;29.73;45.63
11198;BME280;5655;48.744;9.162;2023-07-13T13:03:34;96339.03;;;29.91;45.60
11198;BME280;5655;48.744;9.162;2023-07-13T13:06:07;96342.44;;;29.80;44.09
11198;BME280;5655;48.744;9.162;2023-07-13T13:08:46;96332.94;;;29.87;44.86
11198;BME280;5655;48.744;9.162;2023-07-13T13:11:16;96341.34;;;29.98;43.92
11198;BME280;5655;48.744;9.162;2023-07-13T13:13:43;96339.41;;;29.78;44.58
11198;BME280;5655;48.744;9.162;2023-07-13T13:16:16;96337.69;;;30.17;44.31
11198;BME280;5655;48.744;9.162;2023-07-13T13:18:43;96341.03;;;29.90;44.28
11198;BME280;5655;48.744;9.162;2023-07-13T13:21:10;96336.69;;;29.84;45.62
11198;BME280;5655;48.744;9.162;2023-07-13T13:23:35;96335.47;;;30.22;45.09
11198;BME280;5655;48.744;9.162;2023-07-13T13:26:01;96319.56;;;30.05;43.64
11198;BME280;5655;48.744;9.162;2023-07-13T13:28:27;96335.38;;;30.47;43.94
11198;BME280;5655;48.744;9.162;2023-07-13T13:30:52;96338.28;;;29.90;44.14
11198;BME280;5655;48.744;9.162;2023-07-13T13:33:19;96339.59;;;29.69;44.07
11198;BME280;5655;48.744;9.162;2023-07-13T13:35:45;96340.69;;;29.77;44.53
11198;BME280;5655;48.744;9.162;2023-07-13T13:38:16;96347.53;;;29.30;44.37
11198;BME280;5655;48.744;9.162;2023-07-13T13:40:43;96341.16;;;28.98;44.22
11198;BME280;5655;48.744;9.162;2023-07-13T13:43:26;96334.91;;;29.23;43.72
11198;BME280;5655;48.744;9.162;2023-07-13T13:45:53;96335.38;;;29.42;44.67
11198;BME280;5655;48.744;9.162;2023-07-13T13:48:21;96346.78;;;29.09;44.78